createdAt,value
2019-05-18T00:00:36.576Z,2.77
2019-05-18T00:03:04.866Z,3.20
2019-05-18T00:05:33.129Z,2.93
2019-05-18T00:08:01.441Z,3.50
2019-05-18T00:10:29.758Z,3.03
2019-05-18T00:12:57.993Z,3.13
2019-05-18T00:15:26.319Z,3.07
2019-05-18T00:17:54.544Z,2.97
2019-05-18T00:20:22.796Z,3.33
2019-05-18T00:22:51.027Z,3.47
2019-05-18T00:25:19.278Z,3.37
2019-05-18T00:27:47.497Z,3.50
2019-05-18T00:30:15.896Z,3.37
2019-05-18T00:32:46.857Z,4.10
2019-05-18T00:35:16.793Z,3.83
2019-05-18T00:37:45.157Z,3.90
2019-05-18T00:40:16.152Z,4.30
2019-05-18T00:42:44.381Z,4.10
2019-05-18T00:45:12.674Z,3.70
2019-05-18T00:47:42.235Z,4.30
2019-05-18T00:50:10.774Z,4.13
2019-05-18T00:52:39.020Z,4.10
2019-05-18T00:55:07.744Z,4.10
2019-05-18T00:57:35.974Z,4.63
2019-05-18T01:00:08.157Z,4.33
2019-05-18T01:02:36.458Z,4.73
2019-05-18T01:05:08.317Z,4.67
2019-05-18T01:07:36.610Z,5.30
2019-05-18T01:10:06.045Z,4.40
2019-05-18T01:12:34.329Z,5.10
2019-05-18T01:15:02.662Z,5.00
2019-05-18T01:17:30.965Z,5.00
2019-05-18T01:19:59.284Z,4.47
2019-05-18T01:22:27.645Z,4.57
2019-05-18T01:24:55.838Z,4.37
2019-05-18T01:27:24.056Z,4.30
2019-05-18T01:29:55.147Z,4.13
2019-05-18T01:32:23.376Z,4.70
2019-05-18T01:34:51.634Z,4.70
2019-05-18T01:37:19.924Z,4.33
2019-05-18T01:39:48.244Z,4.77
2019-05-18T01:42:16.464Z,5.40
2019-05-18T01:44:44.721Z,5.00
2019-05-18T01:47:12.947Z,5.70
2019-05-18T01:49:41.246Z,5.27
2019-05-18T01:52:09.457Z,4.73
2019-05-18T01:54:37.712Z,5.13
2019-05-18T01:57:06.010Z,4.97
2019-05-18T01:59:34.341Z,5.43
2019-05-18T02:02:02.643Z,6.20
2019-05-18T02:04:30.968Z,5.13
2019-05-18T02:06:59.269Z,5.80
2019-05-18T02:09:27.522Z,5.87
2019-05-18T02:11:55.825Z,5.50
2019-05-18T02:14:24.046Z,7.40
2019-05-18T02:16:52.385Z,6.17
2019-05-18T02:19:20.609Z,6.50
2019-05-18T02:21:48.934Z,5.90
2019-05-18T02:24:17.161Z,6.10
2019-05-18T02:26:45.503Z,7.17
2019-05-18T02:29:14.510Z,6.70
2019-05-18T02:31:53.242Z,7.27
2019-05-18T02:34:19.738Z,6.93
2019-05-18T02:36:47.992Z,7.70
2019-05-18T02:39:16.286Z,6.97
2019-05-18T02:41:44.626Z,7.20
2019-05-18T02:44:12.926Z,6.73
2019-05-18T02:46:41.250Z,6.40
2019-05-18T02:49:09.558Z,7.17
2019-05-18T02:51:37.805Z,7.30
2019-05-18T02:54:06.114Z,7.40
2019-05-18T02:56:34.428Z,6.97
2019-05-18T02:59:02.657Z,7.00
2019-05-18T03:01:31.005Z,6.50
2019-05-18T03:03:59.282Z,7.20
2019-05-18T03:06:27.530Z,7.00
2019-05-18T03:08:55.829Z,7.70
2019-05-18T03:11:24.158Z,7.40
2019-05-18T03:13:52.465Z,7.60
2019-05-18T03:16:20.715Z,8.53
2019-05-18T03:19:06.830Z,12.00
2019-05-18T03:21:22.175Z,11.00
2019-05-18T03:23:50.408Z,9.83
2019-05-18T03:26:18.669Z,10.30
2019-05-18T03:28:46.901Z,8.70
2019-05-18T03:31:15.166Z,7.93
2019-05-18T03:33:46.234Z,9.63
2019-05-18T03:36:14.566Z,9.77
2019-05-18T03:38:42.854Z,9.73
2019-05-18T03:41:16.828Z,8.70
2019-05-18T03:43:50.025Z,9.60
2019-05-18T03:46:18.346Z,9.50
2019-05-18T03:48:46.652Z,10.10
2019-05-18T03:51:14.901Z,10.70
2019-05-18T03:53:43.125Z,10.27
2019-05-18T03:56:11.452Z,11.77
2019-05-18T03:58:39.685Z,10.30
2019-05-18T04:01:08.016Z,11.90
2019-05-18T04:03:36.267Z,12.27
2019-05-18T04:06:04.609Z,12.23
2019-05-18T04:08:32.828Z,14.27
2019-05-18T04:11:01.081Z,13.70
2019-05-18T04:13:29.317Z,13.70
2019-05-18T04:15:57.572Z,14.03
2019-05-18T04:18:25.797Z,12.50
2019-05-18T04:20:54.058Z,12.43
2019-05-18T04:23:22.293Z,14.03
2019-05-18T04:25:50.548Z,14.03
2019-05-18T04:28:18.804Z,13.10
2019-05-18T04:30:47.132Z,12.50
2019-05-18T04:33:15.448Z,12.70
2019-05-18T04:35:43.719Z,12.77
2019-05-18T04:38:12.081Z,12.33
2019-05-18T04:40:40.432Z,9.60
2019-05-18T04:43:08.926Z,8.80
2019-05-18T04:45:37.225Z,8.20
2019-05-18T04:48:05.525Z,7.03
2019-05-18T04:50:33.855Z,6.57
2019-05-18T04:53:02.077Z,6.80
2019-05-18T04:55:30.338Z,5.87
2019-05-18T04:57:58.562Z,5.77
2019-05-18T05:00:26.889Z,6.47
2019-05-18T05:02:55.121Z,6.40
2019-05-18T05:05:23.385Z,5.80
2019-05-18T05:07:51.606Z,5.67
2019-05-18T05:10:20.033Z,5.77
2019-05-18T05:12:48.266Z,5.80
2019-05-18T05:15:16.591Z,4.87
2019-05-18T05:17:44.815Z,4.47
2019-05-18T05:20:19.931Z,4.67
2019-05-18T05:22:44.638Z,4.53
2019-05-18T05:25:13.134Z,4.20
2019-05-18T05:27:41.357Z,3.80
2019-05-18T05:30:10.282Z,3.60
2019-05-18T05:32:38.576Z,4.10
2019-05-18T05:35:06.996Z,4.03
2019-05-18T05:37:35.231Z,4.10
2019-05-18T05:40:05.015Z,4.00
2019-05-18T05:42:33.269Z,4.07
2019-05-18T05:45:01.505Z,3.80
2019-05-18T05:47:29.760Z,3.50
2019-05-18T05:49:57.995Z,3.90
2019-05-18T05:52:26.316Z,3.90
2019-05-18T05:54:54.546Z,3.93
2019-05-18T05:57:22.812Z,4.07
2019-05-18T05:59:51.093Z,3.67
2019-05-18T06:02:19.321Z,4.30
2019-05-18T06:04:47.591Z,4.00
2019-05-18T06:07:15.823Z,4.10
2019-05-18T06:09:44.074Z,4.27
2019-05-18T06:12:12.302Z,4.30
2019-05-18T06:14:40.549Z,4.17
2019-05-18T06:17:08.798Z,4.10
2019-05-18T06:19:37.153Z,4.40
2019-05-18T06:22:05.445Z,3.80
2019-05-18T06:24:33.809Z,4.20
2019-05-18T06:27:02.260Z,3.80
2019-05-18T06:29:30.579Z,4.23
2019-05-18T06:31:58.830Z,4.40
2019-05-18T06:34:27.063Z,4.30
2019-05-18T06:36:55.988Z,4.50
2019-05-18T06:39:24.497Z,4.03
2019-05-18T06:41:52.722Z,4.30
2019-05-18T06:44:20.992Z,4.40
2019-05-18T06:46:49.312Z,4.53
2019-05-18T06:49:17.584Z,4.60
2019-05-18T06:51:45.888Z,4.73
2019-05-18T06:54:14.210Z,4.60
2019-05-18T06:56:42.920Z,4.60
2019-05-18T06:59:15.854Z,4.30
2019-05-18T07:01:43.595Z,4.40
2019-05-18T07:04:13.064Z,4.37
2019-05-18T07:06:43.668Z,4.10
2019-05-18T07:09:14.392Z,4.67
2019-05-18T07:11:43.818Z,4.77
2019-05-18T07:14:24.931Z,4.60
2019-05-18T07:16:43.065Z,4.50
2019-05-18T07:19:11.402Z,4.70
2019-05-18T07:21:39.694Z,4.70
2019-05-18T07:24:08.018Z,4.30
2019-05-18T07:26:36.239Z,4.50
2019-05-18T07:29:05.778Z,4.23
2019-05-18T07:31:34.278Z,4.40
2019-05-18T07:34:02.613Z,4.43
2019-05-18T07:36:30.913Z,4.53
2019-05-18T07:38:59.248Z,4.30
2019-05-18T07:41:27.493Z,4.10
2019-05-18T07:43:55.827Z,4.23
2019-05-18T07:46:24.125Z,4.33
2019-05-18T07:48:52.464Z,4.40
2019-05-18T07:51:20.768Z,4.47
2019-05-18T07:53:49.030Z,4.20
2019-05-18T07:56:17.331Z,4.53
2019-05-18T07:58:45.670Z,4.20
2019-05-18T08:01:13.905Z,3.83
2019-05-18T08:03:42.173Z,4.80
2019-05-18T08:06:10.484Z,4.10
2019-05-18T08:08:38.698Z,4.03
2019-05-18T08:11:07.037Z,4.27
2019-05-18T08:13:35.338Z,4.20
2019-05-18T08:16:03.821Z,4.40
2019-05-18T08:18:32.148Z,4.47
2019-05-18T08:21:00.485Z,4.07
2019-05-18T08:23:29.033Z,4.50
2019-05-18T08:25:57.372Z,3.73
2019-05-18T08:28:25.956Z,3.77
2019-05-18T08:30:54.215Z,4.07
2019-05-18T08:33:22.522Z,3.90
2019-05-18T08:35:50.966Z,3.70
2019-05-18T08:38:19.161Z,3.53
2019-05-18T08:40:47.497Z,3.60
2019-05-18T08:43:15.816Z,3.40
2019-05-18T08:45:44.123Z,3.50
2019-05-18T08:48:12.389Z,3.70
2019-05-18T08:50:40.716Z,3.90
2019-05-18T08:53:09.017Z,4.00
2019-05-18T08:55:37.324Z,3.43
2019-05-18T08:58:05.731Z,4.00
2019-05-18T09:00:34.031Z,3.70
2019-05-18T09:03:02.379Z,3.77
2019-05-18T09:05:30.665Z,3.30
2019-05-18T09:07:58.886Z,3.33
2019-05-18T09:10:27.218Z,3.60
2019-05-18T09:12:55.523Z,3.40
2019-05-18T09:15:23.833Z,3.50
2019-05-18T09:17:52.101Z,3.07
2019-05-18T09:20:20.425Z,2.60
2019-05-18T09:22:48.694Z,2.43
2019-05-18T09:25:16.998Z,2.63
2019-05-18T09:27:45.261Z,2.60
2019-05-18T09:30:14.308Z,2.47
2019-05-18T09:32:42.634Z,2.70
2019-05-18T09:35:11.138Z,3.40
2019-05-18T09:37:39.476Z,3.47
2019-05-18T09:40:08.577Z,3.50
2019-05-18T09:42:36.873Z,3.77
2019-05-18T09:45:09.491Z,3.70
2019-05-18T09:47:37.892Z,3.47
2019-05-18T09:50:06.448Z,3.60
2019-05-18T09:52:44.741Z,3.20
2019-05-18T09:55:07.439Z,3.57
2019-05-18T09:57:35.851Z,3.70
2019-05-18T10:00:05.661Z,3.00
2019-05-18T10:02:33.930Z,3.57
2019-05-18T10:05:02.274Z,3.53
2019-05-18T10:07:30.606Z,3.50
2019-05-18T10:09:58.869Z,3.60
2019-05-18T10:12:27.124Z,3.30
2019-05-18T10:14:55.462Z,3.57
2019-05-18T10:17:23.797Z,3.40
2019-05-18T10:19:52.099Z,3.70
2019-05-18T10:22:20.358Z,3.70
2019-05-18T10:24:48.884Z,3.40
2019-05-18T10:27:17.147Z,3.60
2019-05-18T10:29:46.704Z,3.03
2019-05-18T10:32:15.368Z,3.50
2019-05-18T10:34:43.724Z,3.43
2019-05-18T10:37:13.944Z,3.70
2019-05-18T10:39:42.273Z,3.20
2019-05-18T10:42:10.684Z,3.33
2019-05-18T10:44:39.088Z,3.00
2019-05-18T10:47:07.491Z,3.10
2019-05-18T10:49:35.797Z,3.13
2019-05-18T10:52:04.126Z,3.53
2019-05-18T10:54:32.494Z,3.30
2019-05-18T10:57:00.971Z,3.00
2019-05-18T10:59:31.831Z,3.27
2019-05-18T11:02:00.224Z,3.50
2019-05-18T11:04:28.493Z,2.70
2019-05-18T11:06:56.750Z,3.17
2019-05-18T11:09:24.979Z,2.87
2019-05-18T11:11:53.304Z,2.70
2019-05-18T11:14:21.597Z,2.73
2019-05-18T11:16:49.907Z,2.90
2019-05-18T11:19:18.246Z,2.97
2019-05-18T11:21:46.652Z,2.40
2019-05-18T11:24:14.909Z,2.90
2019-05-18T11:26:43.130Z,3.10
2019-05-18T11:29:11.465Z,2.70
2019-05-18T11:31:39.692Z,5.23
2019-05-18T11:34:08.009Z,2.63
2019-05-18T11:36:36.309Z,2.50
2019-05-18T11:39:05.708Z,3.13
2019-05-18T11:41:34.041Z,2.93
2019-05-18T11:44:02.837Z,2.90
2019-05-18T11:46:31.170Z,2.77
2019-05-18T11:48:59.386Z,2.43
2019-05-18T11:51:27.722Z,20.47
2019-05-18T11:53:58.143Z,2.70
2019-05-18T11:56:26.015Z,2.40
2019-05-18T11:58:55.126Z,1.90
2019-05-18T12:01:23.519Z,2.10
2019-05-18T12:03:51.788Z,2.30
2019-05-18T12:06:20.079Z,2.50
2019-05-18T12:08:48.338Z,2.30
2019-05-18T12:11:16.601Z,2.30
2019-05-18T12:13:44.890Z,1.83
2019-05-18T12:16:13.155Z,2.10
2019-05-18T12:18:41.472Z,2.03
2019-05-18T12:21:09.778Z,1.70
2019-05-18T12:23:38.029Z,1.80
2019-05-18T12:26:06.338Z,1.67
2019-05-18T12:28:34.604Z,1.62
2019-05-18T12:31:02.909Z,1.87
2019-05-18T12:33:31.135Z,1.98
2019-05-18T12:35:59.399Z,1.92
2019-05-18T12:38:27.688Z,1.90
2019-05-18T12:40:56.017Z,1.85
2019-05-18T12:43:25.568Z,2.00
2019-05-18T12:45:54.310Z,1.90
2019-05-18T12:48:22.980Z,1.70
2019-05-18T12:50:51.390Z,1.70
2019-05-18T12:53:19.786Z,1.95
2019-05-18T12:55:54.085Z,1.50
2019-05-18T12:58:37.689Z,1.52
2019-05-18T13:01:06.155Z,1.73
2019-05-18T13:03:34.471Z,1.80
2019-05-18T13:06:02.799Z,1.60
2019-05-18T13:08:31.660Z,2.40
2019-05-18T13:11:00.120Z,1.47
2019-05-18T13:13:28.529Z,2.02
2019-05-18T13:15:56.834Z,1.90
2019-05-18T13:18:25.444Z,1.75
2019-05-18T13:20:54.610Z,1.60
2019-05-18T13:23:23.145Z,1.80
2019-05-18T13:25:51.554Z,1.80
2019-05-18T13:28:19.982Z,1.80
2019-05-18T13:30:48.470Z,1.77
2019-05-18T13:33:16.809Z,1.77
2019-05-18T13:35:45.701Z,1.98
2019-05-18T13:38:14.722Z,1.60
2019-05-18T13:40:43.096Z,1.62
2019-05-18T13:43:11.428Z,1.47
2019-05-18T13:45:39.726Z,1.80
2019-05-18T13:48:08.071Z,1.40
2019-05-18T13:50:36.341Z,1.45
2019-05-18T13:53:04.675Z,1.60
2019-05-18T13:55:32.897Z,1.50
2019-05-18T13:58:01.615Z,1.40
2019-05-18T14:00:29.913Z,1.87
2019-05-18T14:02:58.365Z,1.60
2019-05-18T14:05:26.744Z,1.90
2019-05-18T14:07:55.237Z,2.00
2019-05-18T14:10:23.656Z,1.70
2019-05-18T14:12:52.200Z,1.80
2019-05-18T14:15:23.001Z,1.70
2019-05-18T14:17:50.794Z,1.80
2019-05-18T14:20:19.164Z,1.80
2019-05-18T14:22:47.749Z,1.87
2019-05-18T14:25:19.686Z,2.00
2019-05-18T14:27:47.538Z,1.50
2019-05-18T14:57:02.896Z,1.73
2019-05-18T14:59:31.270Z,1.80
2019-05-18T15:01:59.788Z,2.00
2019-05-18T15:04:28.248Z,1.80
2019-05-18T15:06:56.551Z,1.63
2019-05-18T15:09:24.825Z,2.00
2019-05-18T15:11:53.131Z,1.70
2019-05-18T15:14:21.470Z,1.60
2019-05-18T15:16:52.827Z,1.60
2019-05-18T15:19:19.676Z,1.63
2019-05-18T15:21:47.934Z,1.57
2019-05-18T15:24:16.293Z,1.70
2019-05-18T15:26:44.558Z,1.70
2019-05-18T15:29:12.832Z,1.90
2019-05-18T15:31:41.142Z,1.83
2019-05-18T15:34:09.487Z,1.60
2019-05-18T15:36:37.816Z,2.00
2019-05-18T15:39:06.747Z,1.70
2019-05-18T15:41:35.138Z,2.20
2019-05-18T15:44:08.567Z,1.73
2019-05-18T15:46:36.999Z,1.73
2019-05-18T15:49:05.407Z,1.90
2019-05-18T15:51:33.918Z,1.90
2019-05-18T15:54:02.374Z,1.70
2019-05-18T15:56:30.810Z,1.60
2019-05-18T15:58:59.325Z,1.80
2019-05-18T16:01:28.727Z,1.47
2019-05-18T16:03:57.147Z,1.60
2019-05-18T16:06:25.561Z,1.73
2019-05-18T16:08:53.973Z,1.53
2019-05-18T16:11:22.388Z,1.80
2019-05-18T16:13:50.819Z,1.60
2019-05-18T16:16:19.202Z,1.60
2019-05-18T16:18:47.638Z,1.80
2019-05-18T16:21:16.277Z,1.60
2019-05-18T16:23:44.692Z,1.63
2019-05-18T16:26:21.255Z,1.73
2019-05-18T16:28:43.230Z,1.77
2019-05-18T16:31:11.604Z,1.80
2019-05-18T16:33:40.045Z,1.70
2019-05-18T16:36:08.602Z,1.90
2019-05-18T16:38:37.704Z,1.63
2019-05-18T16:41:06.222Z,1.83
2019-05-18T16:43:34.710Z,1.80
2019-05-18T16:46:03.204Z,1.90
2019-05-18T16:48:31.697Z,1.70
2019-05-18T16:51:00.110Z,1.97
2019-05-18T16:53:30.901Z,1.80
2019-05-18T16:55:59.283Z,1.50
2019-05-18T16:58:27.834Z,1.53
2019-05-18T17:00:56.317Z,2.43
2019-05-18T17:03:24.767Z,2.03
2019-05-18T17:05:53.201Z,2.50
2019-05-18T17:08:24.166Z,2.67
2019-05-18T17:10:52.605Z,2.80
2019-05-18T17:13:21.485Z,2.70
2019-05-18T17:15:49.879Z,2.67
2019-05-18T17:18:21.688Z,2.63
2019-05-18T17:20:50.076Z,2.30
2019-05-18T17:23:18.411Z,2.20
2019-05-18T17:25:46.785Z,2.40
2019-05-18T17:28:15.205Z,2.20
2019-05-18T17:33:36.499Z,2.10
2019-05-18T17:42:15.654Z,2.00
2019-05-18T17:44:45.701Z,1.60
2019-05-18T17:47:18.212Z,1.57
2019-05-18T17:49:50.854Z,1.90
2019-05-18T17:52:19.264Z,1.50
2019-05-18T17:54:53.871Z,1.40
2019-05-18T17:57:22.327Z,1.53
2019-05-18T17:59:52.397Z,1.60
2019-05-18T18:02:20.815Z,1.60
2019-05-18T18:04:49.317Z,5.07
2019-05-18T18:07:17.774Z,2.47
2019-05-18T18:09:46.089Z,1.70
2019-05-18T18:12:14.545Z,1.50
2019-05-18T18:14:42.978Z,1.60
2019-05-18T18:17:11.428Z,1.43
2019-05-18T18:19:39.799Z,1.50
2019-05-18T18:22:08.182Z,1.60
2019-05-18T18:24:36.742Z,1.43
2019-05-18T18:27:05.151Z,1.50
2019-05-18T18:29:33.603Z,1.43
2019-05-18T18:32:01.989Z,1.60
2019-05-18T18:34:31.927Z,1.70
2019-05-18T18:37:00.350Z,1.80
2019-05-18T18:39:28.786Z,1.53
2019-05-18T18:41:57.193Z,1.90
2019-05-18T18:44:25.641Z,1.40
2019-05-18T18:46:54.074Z,1.50
2019-05-18T18:49:22.632Z,1.53
2019-05-18T18:51:51.034Z,1.50
2019-05-18T18:54:19.463Z,1.70
2019-05-18T18:56:47.877Z,1.70
2019-05-18T18:59:16.347Z,1.40
2019-05-18T19:01:44.740Z,1.70
2019-05-18T19:04:13.131Z,1.70
2019-05-18T19:06:41.617Z,1.60
2019-05-18T19:09:10.089Z,1.60
2019-05-18T19:11:38.536Z,1.47
2019-05-18T19:14:07.178Z,1.40
2019-05-18T19:16:35.667Z,1.63
2019-05-18T19:19:04.753Z,1.80
2019-05-18T19:30:20.197Z,1.70
2019-05-18T19:39:22.327Z,1.80
2019-05-18T19:54:44.669Z,1.70
2019-05-18T19:57:13.413Z,1.90
2019-05-18T19:59:42.366Z,2.10
2019-05-18T20:02:12.001Z,1.60
2019-05-18T20:05:07.146Z,2.10
2019-05-18T20:07:27.896Z,2.90
2019-05-18T20:09:56.337Z,2.70
2019-05-18T20:12:24.845Z,14.90
2019-05-18T20:14:53.182Z,7.10
2019-05-18T20:17:21.697Z,6.17
2019-05-18T20:19:50.500Z,3.43
2019-05-18T20:22:18.921Z,2.10
2019-05-18T20:24:47.320Z,2.00
2019-05-18T20:27:16.017Z,2.00
2019-05-18T20:29:44.533Z,1.80
2019-05-18T20:32:15.410Z,1.53
2019-05-18T20:34:43.968Z,1.60
2019-05-18T20:37:21.940Z,1.50
2019-05-18T20:39:54.671Z,1.70
2019-05-18T20:42:23.074Z,1.70
2019-05-18T20:44:52.165Z,1.80
2019-05-18T20:47:20.939Z,1.77
2019-05-18T20:49:50.554Z,1.80
2019-05-18T20:52:19.973Z,1.80
2019-05-18T20:55:17.172Z,1.80
2019-05-18T20:57:46.272Z,1.70
2019-05-18T21:00:15.104Z,1.70
2019-05-18T21:02:43.486Z,2.00
2019-05-18T21:05:14.805Z,1.80
2019-05-18T21:07:44.013Z,1.87
2019-05-18T21:10:13.582Z,1.83
2019-05-18T21:12:45.075Z,1.90
2019-05-18T21:15:16.202Z,1.80
2019-05-18T21:17:45.791Z,2.30
2019-05-18T21:20:16.290Z,1.87
2019-05-18T21:22:49.869Z,1.90
2019-05-18T21:25:18.334Z,2.00
2019-05-18T21:27:47.063Z,1.83
2019-05-18T21:30:15.584Z,1.80
2019-05-18T21:32:45.923Z,2.03
2019-05-18T21:35:14.512Z,2.07
2019-05-18T21:37:42.903Z,2.10
2019-05-18T21:40:11.346Z,1.90
2019-05-18T21:42:40.300Z,1.70
2019-05-18T21:45:09.091Z,1.60
2019-05-18T21:47:39.852Z,1.83
2019-05-18T21:50:08.429Z,2.20
2019-05-18T21:52:36.993Z,2.27
2019-05-18T21:55:08.213Z,2.57
2019-05-18T21:57:36.732Z,2.40
2019-05-18T22:00:06.471Z,2.80
2019-05-18T22:02:48.365Z,2.57
2019-05-18T22:05:21.920Z,2.90
2019-05-18T22:13:22.739Z,2.80
2019-05-18T22:19:16.784Z,2.83
2019-05-18T22:25:15.185Z,2.50
2019-05-18T22:27:43.892Z,2.30
2019-05-18T22:30:12.321Z,2.70
2019-05-18T22:32:40.988Z,2.30
2019-05-18T22:35:09.389Z,2.47
2019-05-18T22:37:37.812Z,2.50
2019-05-18T22:40:25.499Z,2.50
2019-05-18T22:42:55.499Z,2.80
2019-05-18T22:45:25.823Z,2.83
2019-05-18T22:47:54.188Z,2.77
2019-05-18T22:50:22.572Z,3.13
2019-05-18T22:52:50.930Z,3.10
2019-05-18T22:55:19.351Z,2.90
2019-05-18T22:57:47.761Z,2.97
2019-05-18T23:00:16.308Z,2.70
2019-05-18T23:02:44.701Z,2.50
2019-05-18T23:05:13.348Z,3.20
2019-05-18T23:07:41.752Z,2.90
2019-05-18T23:10:10.206Z,2.60
2019-05-18T23:12:38.620Z,2.60
2019-05-18T23:15:07.869Z,2.40
2019-05-18T23:17:36.984Z,2.30
2019-05-18T23:20:06.287Z,2.47
2019-05-18T23:22:34.737Z,2.23
2019-05-18T23:25:03.864Z,2.27
2019-05-18T23:27:32.369Z,3.23
2019-05-18T23:30:00.772Z,2.73
2019-05-18T23:32:29.224Z,3.30
2019-05-18T23:34:57.998Z,3.63
2019-05-18T23:37:26.493Z,2.70
2019-05-18T23:39:55.113Z,2.90
2019-05-18T23:42:23.581Z,2.73
2019-05-18T23:44:52.035Z,2.50
2019-05-18T23:47:20.551Z,2.57
2019-05-18T23:49:48.965Z,2.60
2019-05-18T23:52:17.537Z,2.70
2019-05-18T23:54:45.952Z,2.87
2019-05-18T23:57:14.588Z,2.70
2019-05-18T23:59:43.150Z,2.60
